createdAt,value
2022-08-22T00:01:28.874Z,7.47
2022-08-22T00:02:41.797Z,4.87
2022-08-22T00:02:43.553Z,5.43
2022-08-22T00:04:22.128Z,8.73
2022-08-22T00:07:20.218Z,8.83
2022-08-22T00:10:06.666Z,6.50
2022-08-22T00:12:51.303Z,7.63
2022-08-22T00:15:43.171Z,11.03
2022-08-22T00:18:16.917Z,10.10
2022-08-22T00:20:54.183Z,5.47
2022-08-22T00:23:47.119Z,4.97
2022-08-22T00:26:21.169Z,13.30
2022-08-22T00:28:53.581Z,7.30
2022-08-22T00:31:37.699Z,9.30
2022-08-22T00:34:14.001Z,6.67
2022-08-22T00:37:02.218Z,10.37
2022-08-22T00:39:31.523Z,13.57
2022-08-22T00:42:31.241Z,6.20
2022-08-22T00:45:10.903Z,10.77
2022-08-22T00:48:08.050Z,8.33
2022-08-22T00:50:49.937Z,6.47
2022-08-22T00:53:22.687Z,7.73
2022-08-22T00:56:08.329Z,7.87
2022-08-22T00:58:58.478Z,6.93
2022-08-22T01:01:33.674Z,6.73
2022-08-22T01:04:34.340Z,5.80
2022-08-22T01:07:16.221Z,6.97
2022-08-22T01:09:45.770Z,8.03
2022-08-22T01:12:56.209Z,5.80
2022-08-22T01:15:28.737Z,5.10
2022-08-22T01:18:33.951Z,7.70
2022-08-22T01:21:31.325Z,5.07
2022-08-22T01:24:23.090Z,9.10
2022-08-22T01:27:25.919Z,6.23
2022-08-22T01:30:12.001Z,5.27
2022-08-22T01:33:20.601Z,6.93
2022-08-22T01:36:05.129Z,5.90
2022-08-22T01:38:52.427Z,7.23
2022-08-22T01:41:34.659Z,6.30
2022-08-22T01:44:20.546Z,7.37
2022-08-22T01:47:06.918Z,6.43
2022-08-22T01:49:33.666Z,6.47
2022-08-22T01:52:12.828Z,5.17
2022-08-22T01:54:58.482Z,4.90
2022-08-22T01:57:26.866Z,9.03
2022-08-22T02:00:01.768Z,4.40
2022-08-22T02:02:35.481Z,5.60
2022-08-22T02:05:21.895Z,3.90
2022-08-22T02:07:57.511Z,6.20
2022-08-22T02:10:43.280Z,6.30
2022-08-22T02:13:30.304Z,5.37
2022-08-22T02:16:12.224Z,6.10
2022-08-22T02:19:09.750Z,9.83
2022-08-22T02:22:21.652Z,7.10
2022-08-22T02:25:04.570Z,5.43
2022-08-22T02:27:59.546Z,7.40
2022-08-22T02:31:06.982Z,9.13
2022-08-22T02:33:39.760Z,7.03
2022-08-22T02:36:21.679Z,6.20
2022-08-22T02:38:58.906Z,10.97
2022-08-22T02:41:48.298Z,5.10
2022-08-22T02:44:28.564Z,9.50
2022-08-22T02:47:30.695Z,6.67
2022-08-22T02:50:13.203Z,6.10
2022-08-22T02:52:58.677Z,6.93
2022-08-22T02:56:01.310Z,8.20
2022-08-22T02:58:52.259Z,7.53
2022-08-22T03:01:28.222Z,8.50
2022-08-22T03:04:32.224Z,7.03
2022-08-22T03:07:08.279Z,6.80
2022-08-22T03:10:00.674Z,5.93
2022-08-22T03:12:44.823Z,4.60
2022-08-22T03:15:30.683Z,7.67
2022-08-22T03:17:57.560Z,8.40
2022-08-22T03:20:42.528Z,7.33
2022-08-22T03:23:34.101Z,6.47
2022-08-22T03:26:14.781Z,6.53
2022-08-22T03:28:59.137Z,4.97
2022-08-22T03:31:29.608Z,7.90
2022-08-22T03:34:23.183Z,6.07
2022-08-22T03:37:11.822Z,5.37
2022-08-22T03:40:01.652Z,5.90
2022-08-22T03:43:09.725Z,5.73
2022-08-22T03:46:07.209Z,6.67
2022-08-22T03:49:01.251Z,5.03
2022-08-22T03:51:27.946Z,9.33
2022-08-22T03:54:26.330Z,6.07
2022-08-22T03:57:19.277Z,7.70
2022-08-22T04:00:10.603Z,5.07
2022-08-22T04:02:44.350Z,9.63
2022-08-22T04:05:48.699Z,7.53
2022-08-22T04:08:32.175Z,6.43
2022-08-22T04:11:25.241Z,6.60
2022-08-22T04:14:13.066Z,7.40
2022-08-22T04:17:14.884Z,6.07
2022-08-22T04:19:49.404Z,8.70
2022-08-22T04:22:40.406Z,6.07
2022-08-22T04:25:30.115Z,6.83
2022-08-22T04:28:25.582Z,9.03
2022-08-22T04:31:12.629Z,7.50
2022-08-22T04:34:07.151Z,9.60
2022-08-22T04:36:48.737Z,7.23
2022-08-22T04:39:21.915Z,8.57
2022-08-22T04:42:31.736Z,6.40
2022-08-22T04:45:05.180Z,6.13
2022-08-22T04:47:38.615Z,5.10
2022-08-22T04:50:31.637Z,7.70
2022-08-22T04:53:10.322Z,7.57
2022-08-22T04:55:53.784Z,9.10
2022-08-22T04:58:48.771Z,11.10
2022-08-22T05:01:37.641Z,6.03
2022-08-22T05:04:51.109Z,7.33
2022-08-22T05:07:24.967Z,10.17
2022-08-22T05:09:56.459Z,9.00
2022-08-22T05:12:40.041Z,8.43
2022-08-22T05:15:19.011Z,7.17
2022-08-22T05:17:53.333Z,9.63
2022-08-22T05:20:25.662Z,6.67
2022-08-22T05:23:00.178Z,7.23
2022-08-22T05:25:32.370Z,8.20
2022-08-22T05:28:13.863Z,8.67
2022-08-22T05:30:41.565Z,7.10
2022-08-22T05:33:30.349Z,9.27
2022-08-22T05:36:09.275Z,9.00
2022-08-22T05:38:46.084Z,8.87
2022-08-22T05:41:19.325Z,8.13
2022-08-22T05:43:49.319Z,7.03
2022-08-22T05:46:34.942Z,7.27
2022-08-22T05:49:04.094Z,22.53
2022-08-22T05:51:48.102Z,14.17
2022-08-22T05:54:20.186Z,11.77
2022-08-22T05:57:42.528Z,9.13
2022-08-22T06:00:14.966Z,6.90
2022-08-22T06:02:51.892Z,9.80
2022-08-22T06:05:42.079Z,10.70
2022-08-22T06:08:23.437Z,9.50
2022-08-22T06:10:55.016Z,6.73
2022-08-22T06:13:28.111Z,8.70
2022-08-22T06:16:05.734Z,10.37
2022-08-22T06:18:34.451Z,8.97
2022-08-22T06:21:04.600Z,8.63
2022-08-22T06:23:41.605Z,10.87
2022-08-22T06:26:20.549Z,8.80
2022-08-22T06:28:55.360Z,11.37
2022-08-22T06:31:37.974Z,7.53
2022-08-22T06:34:10.667Z,8.10
2022-08-22T06:36:40.269Z,9.07
2022-08-22T06:39:22.717Z,10.13
2022-08-22T06:42:14.524Z,12.07
2022-08-22T06:44:50.063Z,7.87
2022-08-22T06:47:33.005Z,10.00
2022-08-22T06:50:19.449Z,10.37
2022-08-22T06:53:06.793Z,6.97
2022-08-22T06:55:36.450Z,11.90
2022-08-22T06:58:07.167Z,8.13
2022-08-22T07:00:35.510Z,9.93
2022-08-22T07:03:15.239Z,7.77
2022-08-22T07:05:43.331Z,9.87
2022-08-22T07:08:14.146Z,9.97
2022-08-22T07:10:47.856Z,9.53
2022-08-22T07:13:19.964Z,9.33
2022-08-22T07:15:54.680Z,10.87
2022-08-22T07:18:26.023Z,10.67
2022-08-22T07:20:59.352Z,8.03
2022-08-22T07:23:37.933Z,9.00
2022-08-22T07:26:43.358Z,10.80
2022-08-22T07:29:32.591Z,8.30
2022-08-22T07:32:11.037Z,9.20
2022-08-22T07:34:45.041Z,7.53
2022-08-22T07:37:17.844Z,8.77
2022-08-22T07:39:56.364Z,11.00
2022-08-22T07:42:48.347Z,11.73
2022-08-22T07:45:31.974Z,9.30
2022-08-22T07:48:22.680Z,12.33
2022-08-22T07:51:09.385Z,11.37
2022-08-22T07:53:47.712Z,10.70
2022-08-22T07:56:35.200Z,10.40
2022-08-22T07:59:13.288Z,12.27
2022-08-22T08:01:56.955Z,15.10
2022-08-22T08:04:35.792Z,12.67
2022-08-22T08:07:08.675Z,14.43
2022-08-22T08:09:42.902Z,10.40
2022-08-22T08:12:12.009Z,11.47
2022-08-22T08:14:42.559Z,11.93
2022-08-22T08:17:31.424Z,11.00
2022-08-22T08:20:02.968Z,8.93
2022-08-22T08:22:30.379Z,11.87
2022-08-22T08:25:00.390Z,10.13
2022-08-22T08:27:50.227Z,10.67
2022-08-22T08:30:19.092Z,10.97
2022-08-22T08:33:12.086Z,9.50
2022-08-22T08:36:02.722Z,12.07
2022-08-22T08:38:41.221Z,12.40
2022-08-22T08:41:26.664Z,9.03
2022-08-22T08:44:30.619Z,12.17
2022-08-22T08:47:12.604Z,13.83
2022-08-22T08:50:05.270Z,13.47
2022-08-22T08:53:08.755Z,9.90
2022-08-22T08:55:57.973Z,13.23
2022-08-22T08:58:41.026Z,11.53
2022-08-22T09:01:27.748Z,13.43
2022-08-22T09:04:22.506Z,9.90
2022-08-22T09:07:32.704Z,11.30
2022-08-22T09:10:20.779Z,6.33
2022-08-22T09:13:24.229Z,10.13
2022-08-22T09:16:04.425Z,9.07
2022-08-22T09:18:51.003Z,8.70
2022-08-22T09:21:27.940Z,12.90
2022-08-22T09:24:18.990Z,13.07
2022-08-22T09:26:50.874Z,7.50
2022-08-22T09:29:23.579Z,8.53
2022-08-22T09:32:13.135Z,11.23
2022-08-22T09:34:57.521Z,9.37
2022-08-22T09:37:35.250Z,10.00
2022-08-22T09:40:04.019Z,11.30
2022-08-22T09:42:52.969Z,5.90
2022-08-22T09:45:37.249Z,7.50
2022-08-22T09:48:33.239Z,6.97
2022-08-22T09:51:32.156Z,6.00
2022-08-22T09:54:31.577Z,7.13
2022-08-22T09:57:22.474Z,9.40
2022-08-22T10:00:13.486Z,6.37
2022-08-22T10:02:43.469Z,6.87
2022-08-22T10:05:35.238Z,5.87
2022-08-22T10:08:34.672Z,6.90
2022-08-22T10:11:18.519Z,6.43
2022-08-22T10:14:22.381Z,6.10
2022-08-22T10:17:00.665Z,5.17
2022-08-22T10:19:30.001Z,11.53
2022-08-22T10:22:15.388Z,12.93
2022-08-22T10:25:16.409Z,11.90
2022-08-22T10:28:18.605Z,9.27
2022-08-22T10:31:10.165Z,9.03
2022-08-22T10:33:50.627Z,7.73
2022-08-22T10:36:32.427Z,8.97
2022-08-22T10:39:02.079Z,10.87
2022-08-22T10:41:45.491Z,9.93
2022-08-22T10:44:24.623Z,10.23
2022-08-22T10:47:01.178Z,6.47
2022-08-22T10:50:00.757Z,7.50
2022-08-22T10:52:33.252Z,6.30
2022-08-22T10:55:25.583Z,6.13
2022-08-22T10:58:13.709Z,4.33
2022-08-22T11:00:50.485Z,6.00
2022-08-22T11:03:46.599Z,8.23
2022-08-22T11:06:23.690Z,6.87
2022-08-22T11:08:57.907Z,7.27
2022-08-22T11:11:40.086Z,5.87
2022-08-22T11:14:29.452Z,5.40
2022-08-22T11:17:02.855Z,9.57
2022-08-22T11:20:14.085Z,11.47
2022-08-22T11:23:22.597Z,5.67
2022-08-22T11:26:13.430Z,4.67
2022-08-22T11:29:12.347Z,6.90
2022-08-22T11:32:18.194Z,5.77
2022-08-22T11:35:21.932Z,8.13
2022-08-22T11:38:03.068Z,7.67
2022-08-22T11:40:41.025Z,4.60
2022-08-22T11:43:32.713Z,9.93
2022-08-22T11:46:32.068Z,3.27
2022-08-22T11:49:32.675Z,4.47
2022-08-22T11:52:06.125Z,3.80
2022-08-22T11:54:45.771Z,7.50
2022-08-22T11:57:18.752Z,6.37
2022-08-22T11:59:45.494Z,5.73
2022-08-22T12:02:54.663Z,7.60
2022-08-22T12:05:27.267Z,5.97
2022-08-22T12:08:08.249Z,7.70
2022-08-22T12:10:51.287Z,5.88
2022-08-22T12:13:50.171Z,3.83
2022-08-22T12:16:24.007Z,5.47
2022-08-22T12:18:57.000Z,6.90
2022-08-22T12:21:23.902Z,5.67
2022-08-22T12:24:20.753Z,2.67
2022-08-22T12:27:07.818Z,4.20
2022-08-22T12:29:53.632Z,5.77
2022-08-22T12:32:39.233Z,5.40
2022-08-22T12:35:29.755Z,5.27
2022-08-22T12:38:26.652Z,5.77
2022-08-22T12:41:28.414Z,5.33
2022-08-22T12:44:23.134Z,3.90
2022-08-22T12:47:09.238Z,5.43
2022-08-22T12:50:05.995Z,5.00
2022-08-22T12:53:06.085Z,6.10
2022-08-22T12:56:01.635Z,4.50
2022-08-22T12:58:41.833Z,10.73
2022-08-22T13:01:10.939Z,6.40
2022-08-22T13:03:46.242Z,3.73
2022-08-22T13:06:34.912Z,4.83
2022-08-22T13:09:18.737Z,3.87
2022-08-22T13:11:49.516Z,5.10
2022-08-22T13:14:25.975Z,6.67
2022-08-22T13:17:00.766Z,7.73
2022-08-22T13:20:01.941Z,6.60
2022-08-22T13:22:32.692Z,2.60
2022-08-22T13:25:08.579Z,4.67
2022-08-22T13:27:50.991Z,8.13
2022-08-22T13:30:37.585Z,5.63
2022-08-22T13:33:12.758Z,4.43
2022-08-22T13:35:51.956Z,4.93
2022-08-22T13:38:32.476Z,6.00
2022-08-22T13:41:01.992Z,5.22
2022-08-22T13:43:34.302Z,6.50
2022-08-22T13:46:04.848Z,5.57
2022-08-22T13:48:54.912Z,5.87
2022-08-22T13:51:34.718Z,2.73
2022-08-22T13:54:11.292Z,3.35
2022-08-22T13:56:54.648Z,7.68
2022-08-22T13:59:50.222Z,3.43
2022-08-22T14:02:43.097Z,3.05
2022-08-22T14:05:25.228Z,3.70
2022-08-22T14:08:12.666Z,7.20
2022-08-22T14:10:47.673Z,4.65
2022-08-22T14:13:51.038Z,4.43
2022-08-22T14:16:24.074Z,5.63
2022-08-22T14:18:54.911Z,4.20
2022-08-22T14:21:47.272Z,3.45
2022-08-22T14:24:55.905Z,8.52
2022-08-22T14:27:59.246Z,4.72
2022-08-22T14:30:54.411Z,5.55
2022-08-22T14:33:34.200Z,6.25
2022-08-22T14:36:10.349Z,7.40
2022-08-22T14:38:46.273Z,4.18
2022-08-22T14:41:22.857Z,2.85
2022-08-22T14:44:00.263Z,4.78
2022-08-22T14:46:53.132Z,6.15
2022-08-22T14:49:26.875Z,3.50
2022-08-22T14:52:19.817Z,5.43
2022-08-22T14:54:47.945Z,4.63
2022-08-22T14:57:20.220Z,3.60
2022-08-22T14:59:50.735Z,2.90
2022-08-22T15:02:27.818Z,4.13
2022-08-22T15:04:56.481Z,3.97
2022-08-22T15:07:37.581Z,3.80
2022-08-22T15:10:11.953Z,3.00
2022-08-22T15:12:49.709Z,2.90
2022-08-22T15:15:28.497Z,3.73
2022-08-22T15:17:55.682Z,2.90
2022-08-22T15:20:36.227Z,4.97
2022-08-22T15:23:10.124Z,3.50
2022-08-22T15:25:41.305Z,4.53
2022-08-22T15:28:14.160Z,3.93
2022-08-22T15:31:03.581Z,4.60
2022-08-22T15:33:43.242Z,2.50
2022-08-22T15:36:30.727Z,4.13
2022-08-22T15:39:27.623Z,3.83
2022-08-22T15:41:55.213Z,2.30
2022-08-22T15:44:33.075Z,4.13
2022-08-22T15:47:11.588Z,2.77
2022-08-22T15:50:07.854Z,2.00
2022-08-22T15:53:14.887Z,2.97
2022-08-22T15:56:05.530Z,3.85
2022-08-22T15:58:37.283Z,3.15
2022-08-22T16:01:20.120Z,5.63
2022-08-22T16:04:06.818Z,2.08
2022-08-22T16:06:47.596Z,3.17
2022-08-22T16:09:36.852Z,3.50
2022-08-22T16:12:09.186Z,8.85
2022-08-22T16:14:35.932Z,3.72
2022-08-22T16:17:04.473Z,3.53
2022-08-22T16:19:33.694Z,4.80
2022-08-22T16:22:00.462Z,2.65
2022-08-22T16:24:28.075Z,2.55
2022-08-22T16:26:55.187Z,5.13
2022-08-22T16:29:27.791Z,1.70
2022-08-22T16:31:56.982Z,3.22
2022-08-22T16:34:38.308Z,4.30
2022-08-22T16:37:21.562Z,2.58
2022-08-22T16:39:50.014Z,2.92
2022-08-22T16:42:21.840Z,3.83
2022-08-22T16:45:06.934Z,4.93
2022-08-22T16:47:33.756Z,5.20
2022-08-22T16:50:23.346Z,3.20
2022-08-22T16:52:53.325Z,3.80
2022-08-22T16:55:29.604Z,6.13
2022-08-22T16:58:11.380Z,3.00
2022-08-22T17:00:41.256Z,3.45
2022-08-22T17:03:29.735Z,6.05
2022-08-22T17:06:04.389Z,3.13
2022-08-22T17:08:43.328Z,4.82
2022-08-22T17:11:47.277Z,5.82
2022-08-22T17:14:43.920Z,2.72
2022-08-22T17:18:01.378Z,4.20
2022-08-22T17:21:13.923Z,4.25
2022-08-22T17:24:01.997Z,5.43
2022-08-22T17:26:49.052Z,5.57
2022-08-22T17:29:37.990Z,4.70
2022-08-22T17:32:20.934Z,4.93
2022-08-22T17:35:04.938Z,5.93
2022-08-22T17:37:47.659Z,5.33
2022-08-22T17:40:17.672Z,3.20
2022-08-22T17:43:13.107Z,7.67
2022-08-22T17:45:46.165Z,5.60
2022-08-22T17:48:13.007Z,5.00
2022-08-22T17:51:12.843Z,4.73
2022-08-22T17:53:54.861Z,5.10
2022-08-22T17:57:00.453Z,2.57
2022-08-22T17:59:44.889Z,5.83
2022-08-22T18:02:17.541Z,5.37
2022-08-22T18:05:00.001Z,4.73
2022-08-22T18:07:53.275Z,3.63
2022-08-22T18:10:30.302Z,7.97
2022-08-22T18:13:26.376Z,6.07
2022-08-22T18:16:11.278Z,4.65
2022-08-22T18:18:46.152Z,5.75
2022-08-22T18:21:37.578Z,4.38
2022-08-22T18:24:10.064Z,3.58
2022-08-22T18:26:50.961Z,4.13
2022-08-22T18:29:17.674Z,6.23
2022-08-22T18:32:12.741Z,4.77
2022-08-22T18:35:02.750Z,6.33
2022-08-22T18:37:35.746Z,4.47
2022-08-22T18:40:11.211Z,4.30
2022-08-22T18:42:50.745Z,6.53
2022-08-22T18:45:44.146Z,6.87
2022-08-22T18:48:31.680Z,2.87
2022-08-22T18:51:29.441Z,4.77
2022-08-22T18:54:25.234Z,8.77
2022-08-22T18:56:58.493Z,7.93
2022-08-22T18:59:46.665Z,4.33
2022-08-22T19:02:35.031Z,4.90
2022-08-22T19:05:40.326Z,7.20
2022-08-22T19:08:26.784Z,4.93
2022-08-22T19:11:08.046Z,6.23
2022-08-22T19:14:00.953Z,3.43
2022-08-22T19:16:53.716Z,6.83
2022-08-22T19:20:00.938Z,6.87
2022-08-22T19:22:33.711Z,4.83
2022-08-22T19:25:08.932Z,7.00
2022-08-22T19:27:44.623Z,5.77
2022-08-22T19:30:34.270Z,4.67
2022-08-22T19:33:10.340Z,6.70
2022-08-22T19:36:06.288Z,7.20
2022-08-22T19:39:04.356Z,3.53
2022-08-22T19:41:44.734Z,7.33
2022-08-22T19:44:20.543Z,7.70
2022-08-22T19:47:08.736Z,5.17
2022-08-22T19:49:40.843Z,5.57
2022-08-22T19:52:28.883Z,5.70
2022-08-22T19:54:58.325Z,4.13
2022-08-22T19:57:43.252Z,6.57
2022-08-22T20:00:15.779Z,6.13
2022-08-22T20:03:03.879Z,4.30
2022-08-22T20:05:57.064Z,3.80
2022-08-22T20:08:36.344Z,5.47
2022-08-22T20:11:28.215Z,7.00
2022-08-22T20:14:30.623Z,7.13
2022-08-22T20:17:00.087Z,5.60
2022-08-22T20:20:16.525Z,4.33
2022-08-22T20:22:38.939Z,7.87
2022-08-22T20:25:15.733Z,5.63
2022-08-22T20:28:06.243Z,5.03
2022-08-22T20:30:41.029Z,5.37
2022-08-22T20:33:24.868Z,4.70
2022-08-22T20:35:55.038Z,7.30
2022-08-22T20:38:32.337Z,5.83
2022-08-22T20:41:11.375Z,7.80
2022-08-22T20:43:42.147Z,6.93
2022-08-22T20:46:32.241Z,9.13
2022-08-22T20:49:01.618Z,6.37
2022-08-22T20:51:32.567Z,6.83
2022-08-22T20:54:15.646Z,6.33
2022-08-22T20:56:52.923Z,7.90
2022-08-22T20:59:27.464Z,6.57
2022-08-22T21:02:24.487Z,8.63
2022-08-22T21:05:02.808Z,8.60
2022-08-22T21:07:31.651Z,7.13
2022-08-22T21:10:25.198Z,6.93
2022-08-22T21:13:31.978Z,5.88
2022-08-22T21:16:12.654Z,4.97
2022-08-22T21:18:45.896Z,5.70
2022-08-22T21:21:17.700Z,7.30
2022-08-22T21:24:00.784Z,6.63
2022-08-22T21:26:59.618Z,5.47
2022-08-22T21:29:32.705Z,3.87
2022-08-22T21:32:13.722Z,6.67
2022-08-22T21:34:47.911Z,6.70
2022-08-22T21:37:18.829Z,6.40
2022-08-22T21:39:51.066Z,4.40
2022-08-22T21:42:29.147Z,8.20
2022-08-22T21:45:08.062Z,5.47
2022-08-22T21:47:38.366Z,5.87
2022-08-22T21:50:23.517Z,5.93
2022-08-22T21:52:56.067Z,5.60
2022-08-22T21:55:54.398Z,4.50
2022-08-22T21:58:34.954Z,9.27
2022-08-22T22:01:30.444Z,6.17
2022-08-22T22:03:59.357Z,6.17
2022-08-22T22:06:27.060Z,5.63
2022-08-22T22:08:53.990Z,7.20
2022-08-22T22:11:20.859Z,6.93
2022-08-22T22:13:47.680Z,4.87
2022-08-22T22:16:19.850Z,4.13
2022-08-22T22:18:46.605Z,3.87
2022-08-22T22:21:13.483Z,6.40
2022-08-22T22:23:40.298Z,6.67
2022-08-22T22:26:07.264Z,6.30
2022-08-22T22:28:40.499Z,4.23
2022-08-22T22:31:07.817Z,5.73
2022-08-22T22:33:38.152Z,6.43
2022-08-22T22:36:18.431Z,5.97
2022-08-22T22:38:46.295Z,6.87
2022-08-22T22:41:13.415Z,4.97
2022-08-22T22:43:40.283Z,6.17
2022-08-22T22:46:07.221Z,6.40
2022-08-22T22:48:34.281Z,6.23
2022-08-22T22:51:08.597Z,4.50
2022-08-22T22:53:40.387Z,7.33
2022-08-22T22:56:21.458Z,6.43
2022-08-22T22:58:49.257Z,4.57
2022-08-22T23:01:22.055Z,6.80
2022-08-22T23:03:54.370Z,4.97
2022-08-22T23:06:23.634Z,7.80
2022-08-22T23:08:50.745Z,4.50
2022-08-22T23:11:20.915Z,5.50
2022-08-22T23:13:48.477Z,5.37
2022-08-22T23:16:18.679Z,7.30
2022-08-22T23:18:46.057Z,6.07
2022-08-22T23:21:25.300Z,5.83
2022-08-22T23:23:54.658Z,4.93
2022-08-22T23:26:21.494Z,6.30
2022-08-22T23:28:48.838Z,6.93
2022-08-22T23:31:19.369Z,6.13
2022-08-22T23:33:46.652Z,7.27
2022-08-22T23:36:19.549Z,6.33
2022-08-22T23:38:47.105Z,6.13
2022-08-22T23:41:17.607Z,10.57
2022-08-22T23:43:47.372Z,9.03
2022-08-22T23:46:15.700Z,9.23
2022-08-22T23:48:42.614Z,7.17
2022-08-22T23:51:11.194Z,6.20
2022-08-22T23:53:39.219Z,4.73
2022-08-22T23:56:19.312Z,6.87
2022-08-22T23:58:50.406Z,8.07
